createdAt,value
2018-07-22T00:00:31.884Z,17.79
2018-07-22T00:01:31.813Z,17.70
2018-07-22T00:02:31.740Z,17.71
2018-07-22T00:03:31.670Z,17.73
2018-07-22T00:04:31.600Z,17.71
2018-07-22T00:05:31.528Z,17.79
2018-07-22T00:06:31.455Z,17.79
2018-07-22T00:07:31.385Z,17.77
2018-07-22T00:08:31.314Z,17.76
2018-07-22T00:09:31.243Z,17.82
2018-07-22T00:10:31.171Z,17.82
2018-07-22T00:11:31.101Z,17.82
2018-07-22T00:12:31.028Z,17.88
2018-07-22T00:13:30.957Z,17.88
2018-07-22T00:14:30.884Z,17.76
2018-07-22T00:15:30.814Z,17.84
2018-07-22T00:16:30.742Z,17.82
2018-07-22T00:17:30.673Z,17.85
2018-07-22T00:18:30.600Z,17.84
2018-07-22T00:19:30.557Z,17.89
2018-07-22T00:20:30.459Z,17.87
2018-07-22T00:21:30.388Z,17.87
2018-07-22T00:22:30.341Z,17.89
2018-07-22T00:23:30.273Z,17.92
2018-07-22T00:24:30.401Z,17.91
2018-07-22T00:25:30.101Z,17.95
2018-07-22T00:26:30.053Z,17.95
2018-07-22T00:27:29.989Z,17.95
2018-07-22T00:28:29.888Z,17.98
2018-07-22T00:29:29.842Z,18.02
2018-07-22T00:30:29.769Z,17.91
2018-07-22T00:31:29.672Z,18.04
2018-07-22T00:32:29.628Z,17.94
2018-07-22T00:33:29.530Z,17.96
2018-07-22T00:34:29.486Z,18.00
2018-07-22T00:35:29.392Z,17.95
2018-07-22T00:36:29.317Z,18.03
2018-07-22T00:37:29.246Z,18.04
2018-07-22T00:38:29.178Z,17.94
2018-07-22T00:40:29.056Z,18.04
2018-07-22T00:41:28.964Z,18.07
2018-07-22T00:42:28.889Z,18.06
2018-07-22T00:43:28.819Z,18.07
2018-07-22T00:44:28.748Z,18.03
2018-07-22T00:45:28.676Z,18.06
2018-07-22T00:46:28.605Z,18.04
2018-07-22T00:47:28.558Z,18.04
2018-07-22T00:48:28.463Z,18.11
2018-07-22T00:49:28.391Z,18.14
2018-07-22T00:50:28.319Z,18.13
2018-07-22T00:51:28.249Z,18.16
2018-07-22T00:52:28.177Z,18.13
2018-07-22T00:53:28.109Z,18.09
2018-07-22T00:54:28.036Z,18.06
2018-07-22T00:55:27.991Z,18.13
2018-07-22T00:56:27.895Z,18.04
2018-07-22T00:57:27.853Z,18.04
2018-07-22T00:58:27.751Z,18.00
2018-07-22T00:59:27.680Z,17.96
2018-07-22T01:00:27.610Z,18.00
2018-07-22T01:01:27.739Z,17.94
2018-07-22T01:02:27.804Z,18.00
2018-07-22T01:03:27.396Z,17.95
2018-07-22T01:04:27.352Z,17.95
2018-07-22T01:05:27.254Z,17.98
2018-07-22T01:06:27.181Z,18.00
2018-07-22T01:08:27.039Z,17.96
2018-07-22T01:09:26.969Z,17.91
2018-07-22T01:10:26.897Z,17.94
2018-07-22T01:11:26.826Z,17.82
2018-07-22T01:12:26.754Z,17.84
2018-07-22T01:13:27.017Z,17.85
2018-07-22T01:14:26.612Z,17.85
2018-07-22T01:15:26.568Z,17.85
2018-07-22T01:16:26.469Z,17.88
2018-07-22T01:17:26.425Z,17.91
2018-07-22T01:18:26.328Z,17.89
2018-07-22T01:19:26.257Z,17.85
2018-07-22T01:20:26.211Z,17.81
2018-07-22T01:21:26.139Z,17.85
2018-07-22T01:22:26.042Z,17.79
2018-07-22T01:23:26.001Z,17.79
2018-07-22T01:24:26.233Z,17.81
2018-07-22T01:25:26.036Z,17.73
2018-07-22T01:26:25.787Z,17.79
2018-07-22T01:27:25.686Z,17.70
2018-07-22T01:28:25.613Z,17.73
2018-07-22T01:29:25.547Z,17.70
2018-07-22T01:30:25.500Z,17.70
2018-07-22T01:32:25.329Z,17.70
2018-07-22T01:33:25.461Z,17.66
2018-07-22T01:34:25.211Z,17.66
2018-07-22T01:35:25.116Z,17.69
2018-07-22T01:36:25.045Z,17.71
2018-07-22T01:37:25.203Z,17.70
2018-07-22T01:38:24.902Z,17.70
2018-07-22T01:39:24.856Z,17.67
2018-07-22T01:40:24.760Z,17.67
2018-07-22T01:41:24.689Z,17.70
2018-07-22T01:42:24.644Z,17.66
2018-07-22T01:43:24.546Z,17.71
2018-07-22T01:44:24.474Z,17.71
2018-07-22T01:45:24.403Z,17.70
2018-07-22T01:46:24.360Z,17.69
2018-07-22T01:47:24.287Z,17.63
2018-07-22T01:48:24.214Z,17.67
2018-07-22T01:49:24.116Z,17.69
2018-07-22T01:50:24.044Z,17.70
2018-07-22T01:51:24.001Z,17.57
2018-07-22T01:52:23.902Z,17.64
2018-07-22T01:53:23.833Z,17.57
2018-07-22T01:54:23.761Z,17.63
2018-07-22T01:55:23.689Z,17.63
2018-07-22T01:56:23.619Z,17.53
2018-07-22T01:57:23.547Z,17.58
2018-07-22T01:58:23.502Z,17.53
2018-07-22T01:59:23.433Z,17.55
2018-07-22T02:00:23.334Z,17.54
2018-07-22T02:01:23.263Z,17.57
2018-07-22T02:02:23.189Z,17.54
2018-07-22T02:03:23.119Z,17.48
2018-07-22T02:04:23.047Z,17.48
2018-07-22T02:05:22.980Z,17.50
2018-07-22T02:06:22.904Z,17.46
2018-07-22T02:07:22.831Z,17.44
2018-07-22T02:08:22.761Z,17.46
2018-07-22T02:09:22.690Z,17.51
2018-07-22T02:10:22.617Z,17.55
2018-07-22T02:11:22.546Z,17.54
2018-07-22T02:12:22.483Z,17.55
2018-07-22T02:13:22.405Z,17.51
2018-07-22T02:14:22.332Z,17.60
2018-07-22T02:15:22.261Z,17.55
2018-07-22T02:16:22.190Z,17.55
2018-07-22T02:17:22.119Z,17.64
2018-07-22T02:18:22.047Z,17.54
2018-07-22T02:19:21.975Z,17.58
2018-07-22T02:20:21.903Z,17.54
2018-07-22T02:21:21.833Z,17.50
2018-07-22T02:22:21.761Z,17.48
2018-07-22T02:23:21.842Z,17.55
2018-07-22T02:24:21.617Z,17.51
2018-07-22T02:25:21.548Z,17.58
2018-07-22T02:26:21.475Z,17.54
2018-07-22T02:27:21.402Z,17.58
2018-07-22T02:28:21.332Z,17.54
2018-07-22T02:29:21.260Z,17.48
2018-07-22T02:30:21.191Z,17.39
2018-07-22T02:31:21.117Z,17.44
2018-07-22T02:32:21.045Z,17.40
2018-07-22T02:33:20.973Z,17.44
2018-07-22T02:34:20.931Z,17.44
2018-07-22T02:35:20.831Z,17.40
2018-07-22T02:36:20.759Z,17.38
2018-07-22T02:37:20.689Z,17.26
2018-07-22T02:38:20.615Z,17.30
2018-07-22T02:39:20.549Z,17.33
2018-07-22T02:40:20.473Z,17.30
2018-07-22T02:41:20.402Z,17.28
2018-07-22T02:42:20.330Z,17.23
2018-07-22T02:43:20.259Z,17.17
2018-07-22T02:44:20.188Z,17.23
2018-07-22T02:45:20.116Z,17.18
2018-07-22T02:46:20.044Z,17.23
2018-07-22T02:47:19.979Z,17.14
2018-07-22T02:48:19.901Z,17.23
2018-07-22T02:49:19.830Z,17.23
2018-07-22T02:50:19.758Z,17.25
2018-07-22T02:51:19.743Z,17.20
2018-07-22T02:52:19.620Z,17.17
2018-07-22T02:53:19.544Z,17.20
2018-07-22T02:54:19.620Z,17.26
2018-07-22T02:55:19.399Z,17.18
2018-07-22T02:56:19.327Z,17.10
2018-07-22T02:57:19.257Z,17.05
2018-07-22T02:58:19.184Z,16.95
2018-07-22T02:59:19.113Z,16.96
2018-07-22T03:00:19.044Z,16.99
2018-07-22T03:01:18.971Z,16.96
2018-07-22T03:02:18.898Z,16.98
2018-07-22T03:03:18.878Z,16.98
2018-07-22T03:04:18.756Z,16.89
2018-07-22T03:05:18.682Z,16.92
2018-07-22T03:06:18.611Z,16.88
2018-07-22T03:07:18.566Z,16.80
2018-07-22T03:08:18.472Z,16.84
2018-07-22T03:09:18.395Z,16.65
2018-07-22T03:10:18.351Z,16.74
2018-07-22T03:11:18.253Z,16.71
2018-07-22T03:12:18.179Z,16.65
2018-07-22T03:13:18.122Z,16.57
2018-07-22T03:14:18.036Z,16.59
2018-07-22T03:15:17.967Z,16.56
2018-07-22T03:16:17.921Z,16.53
2018-07-22T03:17:17.821Z,16.48
2018-07-22T03:18:17.976Z,16.50
2018-07-22T03:20:18.443Z,16.35
2018-07-22T03:21:17.760Z,16.34
2018-07-22T03:25:17.277Z,16.29
2018-07-22T03:27:17.331Z,16.30
2018-07-22T03:28:17.055Z,16.22
2018-07-22T03:29:17.187Z,16.27
2018-07-22T03:30:16.915Z,16.33
2018-07-22T03:31:17.043Z,16.37
2018-07-22T03:34:16.823Z,16.33
2018-07-22T03:37:16.408Z,16.35
2018-07-22T03:38:16.335Z,16.34
2018-07-22T03:39:16.262Z,16.20
2018-07-22T03:41:16.320Z,16.16
2018-07-22T03:42:16.046Z,16.22
2018-07-22T03:43:15.976Z,16.23
2018-07-22T03:44:16.106Z,16.34
2018-07-22T03:45:16.035Z,16.30
2018-07-22T03:46:15.758Z,16.30
2018-07-22T03:48:15.616Z,16.34
2018-07-22T03:49:15.541Z,16.33
2018-07-22T03:50:16.182Z,16.35
2018-07-22T03:51:15.597Z,16.41
2018-07-22T03:52:15.328Z,16.35
2018-07-22T03:53:15.256Z,16.50
2018-07-22T03:54:15.355Z,16.45
2018-07-22T03:55:15.082Z,16.48
2018-07-22T03:56:15.009Z,16.48
2018-07-22T03:58:14.895Z,16.50
2018-07-22T03:59:14.819Z,16.60
2018-07-22T04:00:14.870Z,16.56
2018-07-22T04:01:14.675Z,16.60
2018-07-22T04:02:14.601Z,16.63
2018-07-22T04:03:14.533Z,16.71
2018-07-22T04:04:14.637Z,16.66
2018-07-22T04:05:14.692Z,16.67
2018-07-22T04:06:14.317Z,16.73
2018-07-22T04:07:14.417Z,16.71
2018-07-22T04:08:14.376Z,16.88
2018-07-22T04:09:14.096Z,16.80
2018-07-22T04:10:13.999Z,16.88
2018-07-22T04:11:13.954Z,16.89
2018-07-22T04:12:13.883Z,16.89
2018-07-22T04:14:13.737Z,16.98
2018-07-22T04:15:13.666Z,16.99
2018-07-22T04:16:13.770Z,16.98
2018-07-22T04:17:13.520Z,17.05
2018-07-22T04:18:13.449Z,17.11
2018-07-22T04:19:13.382Z,17.07
2018-07-22T04:20:13.310Z,17.11
2018-07-22T04:21:13.236Z,17.10
2018-07-22T04:22:13.172Z,17.08
2018-07-22T04:23:13.091Z,17.17
2018-07-22T04:24:13.224Z,17.05
2018-07-22T04:25:13.154Z,17.08
2018-07-22T04:26:12.875Z,17.26
2018-07-22T04:27:12.778Z,17.18
2018-07-22T04:28:12.737Z,17.08
2018-07-22T04:29:12.679Z,17.13
2018-07-22T04:30:12.562Z,17.21
2018-07-22T04:31:12.517Z,17.18
2018-07-22T04:32:12.726Z,17.23
2018-07-22T04:33:12.577Z,17.21
2018-07-22T04:34:12.301Z,17.17
2018-07-22T04:35:12.433Z,17.18
2018-07-22T04:36:12.364Z,17.18
2018-07-22T04:37:12.088Z,17.20
2018-07-22T04:38:12.220Z,17.25
2018-07-22T04:39:12.196Z,17.25
2018-07-22T04:40:11.874Z,17.32
2018-07-22T04:41:11.978Z,17.33
2018-07-22T04:42:11.704Z,17.36
2018-07-22T04:43:11.657Z,17.40
2018-07-22T04:44:11.560Z,17.35
2018-07-22T04:45:11.720Z,17.33
2018-07-22T04:46:11.445Z,17.38
2018-07-22T04:47:11.372Z,17.40
2018-07-22T04:48:11.300Z,17.44
2018-07-22T04:49:11.608Z,17.47
2018-07-22T04:51:11.292Z,17.50
2018-07-22T04:52:11.018Z,17.54
2018-07-22T04:53:11.148Z,17.55
2018-07-22T04:54:11.584Z,17.57
2018-07-22T04:55:10.979Z,17.64
2018-07-22T04:56:10.732Z,17.73
2018-07-22T04:57:10.662Z,17.70
2018-07-22T04:58:10.560Z,17.71
2018-07-22T04:59:10.489Z,17.70
2018-07-22T05:01:10.375Z,17.84
2018-07-22T05:05:11.152Z,18.02
2018-07-22T05:06:10.423Z,17.96
2018-07-22T05:08:09.877Z,18.11
2018-07-22T05:11:09.662Z,18.18
2018-07-22T05:12:09.792Z,18.24
2018-07-22T05:13:09.528Z,18.18
2018-07-22T05:15:09.384Z,18.28
2018-07-22T05:17:09.515Z,18.28
2018-07-22T05:20:09.022Z,18.37
2018-07-22T05:21:08.953Z,18.40
2018-07-22T05:22:08.883Z,18.42
2018-07-22T05:23:08.988Z,18.43
2018-07-22T05:24:08.741Z,18.44
2018-07-22T05:25:08.675Z,18.49
2018-07-22T05:26:09.108Z,18.55
2018-07-22T05:27:08.501Z,18.55
2018-07-22T05:28:08.459Z,18.67
2018-07-22T05:29:08.668Z,18.65
2018-07-22T05:30:08.290Z,18.73
2018-07-22T05:31:08.250Z,18.80
2018-07-22T05:32:08.177Z,18.79
2018-07-22T05:33:08.309Z,18.84
2018-07-22T05:34:08.436Z,18.79
2018-07-22T05:36:08.096Z,18.82
2018-07-22T05:37:07.822Z,18.77
2018-07-22T05:38:08.260Z,18.79
2018-07-22T05:39:07.884Z,18.90
2018-07-22T05:42:07.728Z,18.89
2018-07-22T05:44:07.532Z,18.89
2018-07-22T05:45:07.258Z,18.94
2018-07-22T05:46:07.194Z,18.98
2018-07-22T05:47:07.727Z,19.05
2018-07-22T05:48:07.249Z,19.01
2018-07-22T05:49:06.980Z,19.02
2018-07-22T05:50:06.903Z,19.05
2018-07-22T05:51:06.841Z,19.01
2018-07-22T05:52:06.763Z,18.97
2018-07-22T05:53:06.670Z,19.01
2018-07-22T05:54:06.927Z,19.02
2018-07-22T05:55:06.556Z,19.02
2018-07-22T05:56:06.468Z,19.01
2018-07-22T05:57:06.389Z,19.13
2018-07-22T05:58:06.316Z,19.15
2018-07-22T05:59:06.247Z,19.27
2018-07-22T06:00:06.177Z,19.38
2018-07-22T06:01:06.106Z,19.23
2018-07-22T06:02:06.036Z,19.36
2018-07-22T06:03:05.996Z,19.40
2018-07-22T06:04:05.896Z,19.48
2018-07-22T06:05:05.827Z,19.48
2018-07-22T06:06:05.753Z,19.46
2018-07-22T06:07:05.684Z,19.40
2018-07-22T06:08:05.614Z,19.43
2018-07-22T06:09:05.574Z,19.53
2018-07-22T06:10:05.476Z,19.51
2018-07-22T06:11:05.405Z,19.68
2018-07-22T06:12:05.380Z,19.63
2018-07-22T06:13:05.264Z,19.68
2018-07-22T06:15:05.123Z,19.54
2018-07-22T06:16:05.081Z,19.55
2018-07-22T06:17:05.014Z,19.53
2018-07-22T06:18:04.937Z,19.45
2018-07-22T06:19:04.872Z,19.42
2018-07-22T06:20:04.807Z,19.46
2018-07-22T06:21:04.704Z,19.33
2018-07-22T06:22:04.834Z,19.39
2018-07-22T06:23:04.560Z,19.42
2018-07-22T06:24:04.492Z,19.31
2018-07-22T06:25:04.420Z,19.40
2018-07-22T06:26:04.349Z,19.38
2018-07-22T06:27:04.310Z,19.45
2018-07-22T06:28:04.236Z,19.43
2018-07-22T06:29:04.345Z,19.43
2018-07-22T06:30:04.299Z,19.46
2018-07-22T06:31:04.332Z,19.50
2018-07-22T06:32:03.955Z,19.43
2018-07-22T06:33:03.887Z,19.53
2018-07-22T06:34:03.788Z,19.54
2018-07-22T06:35:03.920Z,19.55
2018-07-22T06:36:03.679Z,19.48
2018-07-22T06:37:03.604Z,19.58
2018-07-22T06:38:03.508Z,19.53
2018-07-22T06:39:03.771Z,19.65
2018-07-22T06:40:03.368Z,19.69
2018-07-22T06:41:03.305Z,19.72
2018-07-22T06:42:03.253Z,19.87
2018-07-22T06:43:03.157Z,19.94
2018-07-22T06:44:03.087Z,20.12
2018-07-22T06:45:03.022Z,20.08
2018-07-22T06:46:02.961Z,20.24
2018-07-22T06:47:02.906Z,20.34
2018-07-22T06:48:02.809Z,20.49
2018-07-22T06:49:02.739Z,20.57
2018-07-22T06:50:02.673Z,20.56
2018-07-22T06:51:02.600Z,20.59
2018-07-22T06:52:02.529Z,20.51
2018-07-22T06:53:02.460Z,20.53
2018-07-22T06:54:02.390Z,20.65
2018-07-22T06:55:02.323Z,20.66
2018-07-22T06:56:02.250Z,20.65
2018-07-22T06:57:02.410Z,20.54
2018-07-22T06:58:02.135Z,20.65
2018-07-22T06:59:02.064Z,20.61
2018-07-22T07:01:02.009Z,20.71
2018-07-22T07:02:02.264Z,20.82
2018-07-22T07:03:01.992Z,20.84
2018-07-22T07:04:01.923Z,20.93
2018-07-22T07:05:01.867Z,21.04
2018-07-22T07:06:01.579Z,21.19
2018-07-22T07:07:01.714Z,21.06
2018-07-22T07:08:01.440Z,21.12
2018-07-22T07:09:01.379Z,21.02
2018-07-22T07:10:01.309Z,20.98
2018-07-22T07:11:01.508Z,20.98
2018-07-22T07:12:01.172Z,20.96
2018-07-22T07:13:01.097Z,20.98
2018-07-22T07:14:01.230Z,21.08
2018-07-22T07:15:00.962Z,21.08
2018-07-22T07:16:01.805Z,21.14
2018-07-22T07:18:00.956Z,21.27
2018-07-22T07:19:00.884Z,21.19
2018-07-22T07:21:00.853Z,21.05
2018-07-22T07:23:00.812Z,20.87
2018-07-22T07:24:00.339Z,20.86
2018-07-22T07:25:00.279Z,20.84
2018-07-22T07:26:00.380Z,20.83
2018-07-22T07:27:00.334Z,20.86
2018-07-22T07:28:00.774Z,20.89
2018-07-22T07:28:59.993Z,20.99
2018-07-22T07:30:00.230Z,21.05
2018-07-22T07:31:00.565Z,21.17
2018-07-22T07:31:59.990Z,21.17
2018-07-22T07:33:00.427Z,21.17
2018-07-22T07:35:59.513Z,21.36
2018-07-22T07:38:59.305Z,21.72
2018-07-22T07:41:59.299Z,21.91
2018-07-22T07:42:59.231Z,21.86
2018-07-22T07:44:59.096Z,22.00
2018-07-22T07:49:58.747Z,22.00
2018-07-22T07:50:58.682Z,22.10
2018-07-22T07:51:59.324Z,22.13
2018-07-22T07:52:58.343Z,22.19
2018-07-22T07:53:58.273Z,22.23
2018-07-22T07:54:58.179Z,22.34
2018-07-22T07:55:58.314Z,22.34
2018-07-22T07:56:58.046Z,22.56
2018-07-22T07:57:57.974Z,22.62
2018-07-22T07:58:57.905Z,22.60
2018-07-22T07:59:57.838Z,22.60
2018-07-22T08:00:57.771Z,22.72
2018-07-22T08:01:57.700Z,22.81
2018-07-22T08:02:57.634Z,22.79
2018-07-22T08:03:57.567Z,22.83
2018-07-22T08:04:57.725Z,22.92
2018-07-22T08:05:57.458Z,23.07
2018-07-22T08:09:57.186Z,22.68
2018-07-22T08:10:58.535Z,22.50
2018-07-22T08:12:57.188Z,22.47
2018-07-22T08:14:56.848Z,22.37
2018-07-22T08:15:56.989Z,22.31
2018-07-22T08:16:56.916Z,22.30
2018-07-22T08:17:56.645Z,22.26
2018-07-22T08:19:56.514Z,22.31
2018-07-22T08:20:56.949Z,22.38
2018-07-22T08:23:56.947Z,22.53
2018-07-22T08:24:57.085Z,22.59
2018-07-22T08:25:56.303Z,22.65
2018-07-22T08:28:56.101Z,22.83
2018-07-22T08:29:57.348Z,22.69
2018-07-22T08:30:56.366Z,22.84
2018-07-22T08:32:55.626Z,23.05
2018-07-22T08:34:55.490Z,23.23
2018-07-22T08:35:56.134Z,23.43
2018-07-22T08:36:55.357Z,23.50
2018-07-22T08:38:56.029Z,23.35
2018-07-22T08:39:55.354Z,23.52
2018-07-22T08:40:55.285Z,23.29
2018-07-22T08:41:55.017Z,23.18
2018-07-22T08:43:56.298Z,23.18
2018-07-22T08:44:54.817Z,23.23
2018-07-22T08:48:54.550Z,23.00
2018-07-22T08:50:54.412Z,23.26
2018-07-22T08:51:55.255Z,23.42
2018-07-22T08:55:54.072Z,23.27
2018-07-22T08:56:54.409Z,23.31
2018-07-22T08:57:54.139Z,23.24
2018-07-22T09:00:53.737Z,23.40
2018-07-22T09:01:54.073Z,23.38
2018-07-22T09:06:53.532Z,23.61
2018-07-22T09:07:53.261Z,23.56
2018-07-22T09:08:53.397Z,23.31
2018-07-22T09:09:53.128Z,23.31
2018-07-22T09:13:53.061Z,23.46
2018-07-22T09:18:53.126Z,23.79
2018-07-22T09:22:52.862Z,23.52
2018-07-22T09:23:53.301Z,23.53
2018-07-22T09:25:52.253Z,23.46
2018-07-22T09:27:51.920Z,23.46
2018-07-22T09:29:51.780Z,23.65
2018-07-22T09:32:51.583Z,23.92
2018-07-22T09:33:51.514Z,23.85
2018-07-22T09:34:51.445Z,24.05
2018-07-22T09:35:51.663Z,24.00
2018-07-22T09:37:51.552Z,24.07
2018-07-22T09:38:51.176Z,24.15
2018-07-22T09:40:51.249Z,24.26
2018-07-22T09:43:51.045Z,24.45
2018-07-22T09:44:50.977Z,24.30
2018-07-22T09:48:50.508Z,24.30
2018-07-22T09:50:50.583Z,24.78
2018-07-22T09:51:50.312Z,24.94
2018-07-22T09:53:50.548Z,25.30
2018-07-22T09:55:50.245Z,25.37
2018-07-22T09:56:49.977Z,25.49
2018-07-22T09:57:49.910Z,25.27
2018-07-22T09:59:50.388Z,25.05
2018-07-22T10:00:49.715Z,25.15
2018-07-22T10:01:49.620Z,24.88
2018-07-22T10:02:49.555Z,24.76
2018-07-22T10:03:49.717Z,24.64
2018-07-22T10:04:49.729Z,24.83
2018-07-22T10:05:50.296Z,24.75
2018-07-22T10:06:50.028Z,24.97
2018-07-22T10:07:49.426Z,25.13
2018-07-22T10:08:49.158Z,25.01
2018-07-22T10:09:49.119Z,25.09
2018-07-22T10:10:49.026Z,25.04
2018-07-22T10:11:49.389Z,24.88
2018-07-22T10:12:48.920Z,24.83
2018-07-22T10:14:49.144Z,24.66
2018-07-22T10:15:48.924Z,24.64
2018-07-22T10:16:48.706Z,24.90
2018-07-22T10:17:48.564Z,24.76
2018-07-22T10:18:48.527Z,24.91
2018-07-22T10:19:48.461Z,25.00
2018-07-22T10:20:48.395Z,25.02
2018-07-22T10:21:48.529Z,25.04
2018-07-22T10:22:48.261Z,25.00
2018-07-22T10:23:48.905Z,24.91
2018-07-22T10:25:48.036Z,25.00
2018-07-22T10:26:48.198Z,25.00
2018-07-22T10:27:48.640Z,24.88
2018-07-22T10:28:47.940Z,24.78
2018-07-22T10:30:47.731Z,25.09
2018-07-22T10:32:47.750Z,25.15
2018-07-22T10:34:47.471Z,25.17
2018-07-22T10:35:47.406Z,25.22
2018-07-22T10:36:47.312Z,25.40
2018-07-22T10:37:47.270Z,25.49
2018-07-22T10:38:47.179Z,25.52
2018-07-22T10:39:47.141Z,25.64
2018-07-22T10:41:47.004Z,25.70
2018-07-22T10:42:46.916Z,25.60
2018-07-22T10:43:46.852Z,25.45
2018-07-22T10:44:46.813Z,25.45
2018-07-22T10:45:46.746Z,25.59
2018-07-22T10:46:46.652Z,25.41
2018-07-22T10:47:46.589Z,25.31
2018-07-22T10:48:46.522Z,25.31
2018-07-22T10:49:46.483Z,25.19
2018-07-22T10:50:46.391Z,25.30
2018-07-22T10:51:46.326Z,25.16
2018-07-22T10:52:46.291Z,24.90
2018-07-22T10:53:46.194Z,24.91
2018-07-22T10:54:46.129Z,25.10
2018-07-22T10:55:46.064Z,25.12
2018-07-22T10:56:46.331Z,25.10
2018-07-22T10:57:45.931Z,25.08
2018-07-22T10:58:45.866Z,25.13
2018-07-22T10:59:45.799Z,25.10
2018-07-22T11:00:45.762Z,25.13
2018-07-22T11:01:45.668Z,24.97
2018-07-22T11:02:45.602Z,24.97
2018-07-22T11:03:45.535Z,25.19
2018-07-22T11:04:45.471Z,24.95
2018-07-22T11:05:45.404Z,25.12
2018-07-22T11:06:45.338Z,25.01
2018-07-22T11:07:45.272Z,25.10
2018-07-22T11:08:45.206Z,25.23
2018-07-22T11:09:45.140Z,25.42
2018-07-22T11:10:45.074Z,25.56
2018-07-22T11:11:45.009Z,25.50
2018-07-22T11:12:44.942Z,25.74
2018-07-22T11:13:44.876Z,25.89
2018-07-22T11:14:44.845Z,25.90
2018-07-22T11:15:44.744Z,25.78
2018-07-22T11:16:44.679Z,25.87
2018-07-22T11:17:44.612Z,25.87
2018-07-22T11:18:44.546Z,25.87
2018-07-22T11:19:44.483Z,25.77
2018-07-22T11:20:44.418Z,25.77
2018-07-22T11:21:44.352Z,25.68
2018-07-22T11:22:44.290Z,25.67
2018-07-22T11:23:44.223Z,25.64
2018-07-22T11:24:44.156Z,25.72
2018-07-22T11:25:44.089Z,25.99
2018-07-22T11:26:44.051Z,26.11
2018-07-22T11:27:43.961Z,26.12
2018-07-22T11:28:43.920Z,26.07
2018-07-22T11:29:43.829Z,25.97
2018-07-22T11:30:43.763Z,26.01
2018-07-22T11:31:43.699Z,26.01
2018-07-22T11:32:43.633Z,26.25
2018-07-22T11:33:43.567Z,26.46
2018-07-22T11:34:43.503Z,26.15
2018-07-22T11:35:43.437Z,25.87
2018-07-22T11:36:43.373Z,25.84
2018-07-22T11:37:43.308Z,25.92
2018-07-22T11:38:43.243Z,26.05
2018-07-22T11:40:43.113Z,26.18
2018-07-22T11:41:43.047Z,26.32
2018-07-22T11:42:43.185Z,26.34
2018-07-22T11:43:43.657Z,26.32
2018-07-22T11:44:43.082Z,26.75
2018-07-22T11:45:42.789Z,26.98
2018-07-22T11:46:42.725Z,27.36
2018-07-22T11:47:42.660Z,27.70
2018-07-22T11:48:42.597Z,27.67
2018-07-22T11:49:42.532Z,27.92
2018-07-22T11:50:42.517Z,28.01
2018-07-22T11:51:42.405Z,27.51
2018-07-22T11:52:42.346Z,27.36
2018-07-22T11:53:42.278Z,27.31
2018-07-22T11:54:42.215Z,27.35
2018-07-22T11:55:42.151Z,28.11
2018-07-22T11:56:42.089Z,28.57
2018-07-22T11:57:42.054Z,28.68
2018-07-22T11:58:41.962Z,28.11
2018-07-22T11:59:41.900Z,27.89
2018-07-22T12:00:41.838Z,27.74
2018-07-22T12:01:41.775Z,27.89
2018-07-22T12:02:41.713Z,28.43
2018-07-22T12:03:41.650Z,28.91
2018-07-22T12:04:41.591Z,28.87
2018-07-22T12:05:41.528Z,28.80
2018-07-22T12:06:41.492Z,29.13
2018-07-22T12:07:41.469Z,29.85
2018-07-22T12:08:41.341Z,29.28
2018-07-22T12:09:41.308Z,29.60
2018-07-22T12:10:41.247Z,29.11
2018-07-22T12:11:41.160Z,28.78
2018-07-22T12:12:41.099Z,28.36
2018-07-22T12:13:43.659Z,28.32
2018-07-22T12:14:40.980Z,28.06
2018-07-22T12:15:40.918Z,28.07
2018-07-22T12:16:40.859Z,27.89
2018-07-22T12:17:40.796Z,29.01
2018-07-22T12:18:40.735Z,29.96
2018-07-22T12:19:40.827Z,30.64
2018-07-22T12:20:40.615Z,31.45
2018-07-22T12:21:40.555Z,32.09
2018-07-22T12:22:40.495Z,31.80
2018-07-22T12:23:40.434Z,31.08
2018-07-22T12:24:40.377Z,30.12
2018-07-22T12:25:40.317Z,29.44
2018-07-22T12:26:40.260Z,28.57
2018-07-22T12:27:40.200Z,27.92
2018-07-22T12:28:40.142Z,27.65
2018-07-22T12:29:40.082Z,27.34
2018-07-22T12:30:40.022Z,27.19
2018-07-22T12:31:39.962Z,28.35
2018-07-22T12:32:39.901Z,29.29
2018-07-22T12:33:39.841Z,30.03
2018-07-22T12:34:39.782Z,30.87
2018-07-22T12:35:39.721Z,31.31
2018-07-22T12:36:39.661Z,31.30
2018-07-22T12:37:39.602Z,30.99
2018-07-22T12:38:39.543Z,30.59
2018-07-22T12:39:39.485Z,30.87
2018-07-22T12:40:39.426Z,30.56
2018-07-22T12:41:39.369Z,30.64
2018-07-22T12:42:39.309Z,31.08
2018-07-22T12:43:39.253Z,31.15
2018-07-22T12:44:39.197Z,30.96
2018-07-22T12:45:39.135Z,30.70
2018-07-22T12:46:39.077Z,30.15
2018-07-22T12:47:39.021Z,29.28
2018-07-22T12:48:38.963Z,28.88
2018-07-22T12:49:38.905Z,29.51
2018-07-22T12:50:38.846Z,30.10
2018-07-22T12:51:38.790Z,30.72
2018-07-22T12:52:38.735Z,30.59
2018-07-22T12:53:38.691Z,29.84
2018-07-22T12:54:38.615Z,30.17
2018-07-22T12:55:38.557Z,30.56
2018-07-22T12:56:38.498Z,31.18
2018-07-22T12:57:38.440Z,31.05
2018-07-22T12:58:38.382Z,30.29
2018-07-22T12:59:38.324Z,29.92
2018-07-22T13:00:38.266Z,29.28
2018-07-22T13:01:38.206Z,29.19
2018-07-22T13:02:38.148Z,29.22
2018-07-22T13:03:38.090Z,30.27
2018-07-22T13:04:38.032Z,30.87
2018-07-22T13:05:37.970Z,31.34
2018-07-22T13:06:37.913Z,31.90
2018-07-22T13:07:37.855Z,32.24
2018-07-22T13:08:37.796Z,31.64
2018-07-22T13:09:37.740Z,31.73
2018-07-22T13:10:37.682Z,32.11
2018-07-22T13:11:37.625Z,32.05
2018-07-22T13:12:37.568Z,31.76
2018-07-22T13:13:37.511Z,31.87
2018-07-22T13:14:37.454Z,31.34
2018-07-22T13:15:37.398Z,31.27
2018-07-22T13:16:37.344Z,31.15
2018-07-22T13:17:37.301Z,31.80
2018-07-22T13:18:37.228Z,31.76
2018-07-22T13:19:37.173Z,31.04
2018-07-22T13:20:37.117Z,29.68
2018-07-22T13:21:37.062Z,29.99
2018-07-22T13:22:37.005Z,30.26
2018-07-22T13:23:36.948Z,30.30
2018-07-22T13:24:36.893Z,30.06
2018-07-22T13:25:36.838Z,29.99
2018-07-22T13:26:36.777Z,30.14
2018-07-22T13:27:36.765Z,29.87
2018-07-22T13:28:36.663Z,29.69
2018-07-22T13:29:36.606Z,29.62
2018-07-22T13:30:36.550Z,29.74
2018-07-22T13:31:36.491Z,30.29
2018-07-22T13:32:36.434Z,30.26
2018-07-22T13:33:36.379Z,30.32
2018-07-22T13:34:36.322Z,29.97
2018-07-22T13:35:36.271Z,30.10
2018-07-22T13:36:36.205Z,29.28
2018-07-22T13:37:36.144Z,29.90
2018-07-22T13:38:36.097Z,30.86
2018-07-22T13:39:36.032Z,31.09
2018-07-22T13:40:35.972Z,31.71
2018-07-22T13:41:35.913Z,32.28
2018-07-22T13:42:35.856Z,32.46
2018-07-22T13:43:35.798Z,32.31
2018-07-22T13:44:35.742Z,32.09
2018-07-22T13:45:35.807Z,32.14
2018-07-22T13:46:35.627Z,31.84
2018-07-22T13:47:35.572Z,32.39
2018-07-22T13:48:35.515Z,32.64
2018-07-22T13:49:35.464Z,31.95
2018-07-22T13:50:35.405Z,31.16
2018-07-22T13:51:35.347Z,31.23
2018-07-22T13:52:35.291Z,31.36
2018-07-22T13:53:35.235Z,30.59
2018-07-22T13:54:35.178Z,29.96
2018-07-22T13:55:35.122Z,29.40
2018-07-22T13:56:35.065Z,29.89
2018-07-22T13:57:35.008Z,30.75
2018-07-22T13:58:34.951Z,30.36
2018-07-22T13:59:34.891Z,30.56
2018-07-22T14:00:34.838Z,31.45
2018-07-22T14:01:34.779Z,31.36
2018-07-22T14:02:34.723Z,30.64
2018-07-22T14:03:34.668Z,29.77
2018-07-22T14:04:34.607Z,29.25
2018-07-22T14:05:34.548Z,29.22
2018-07-22T14:06:34.490Z,29.11
2018-07-22T14:07:34.430Z,28.90
2018-07-22T14:08:34.376Z,28.69
2018-07-22T14:09:34.312Z,28.63
2018-07-22T14:10:34.256Z,28.47
2018-07-22T14:11:34.194Z,28.29
2018-07-22T14:12:34.135Z,28.22
2018-07-22T14:13:34.076Z,28.32
2018-07-22T14:14:34.014Z,28.96
2018-07-22T14:15:33.994Z,29.73
2018-07-22T14:16:33.894Z,29.87
2018-07-22T14:17:33.831Z,29.19
2018-07-22T14:18:33.772Z,28.46
2018-07-22T14:19:33.712Z,28.28
2018-07-22T14:20:33.652Z,28.35
2018-07-22T14:21:33.645Z,28.26
2018-07-22T14:22:33.534Z,29.36
2018-07-22T14:23:33.472Z,30.19
2018-07-22T14:24:33.406Z,29.62
2018-07-22T14:25:33.346Z,29.47
2018-07-22T14:26:33.285Z,30.18
2018-07-22T14:27:33.224Z,30.87
2018-07-22T14:28:33.164Z,30.62
2018-07-22T14:29:33.104Z,30.27
2018-07-22T14:30:33.043Z,29.69
2018-07-22T14:31:32.986Z,29.51
2018-07-22T14:32:32.924Z,29.03
2018-07-22T14:33:32.862Z,29.44
2018-07-22T14:34:32.801Z,29.21
2018-07-22T14:35:32.743Z,29.04
2018-07-22T14:36:32.680Z,28.78
2018-07-22T14:37:32.619Z,28.66
2018-07-22T14:38:32.558Z,28.41
2018-07-22T14:39:32.497Z,28.13